sensor_id;sensor_type;location;lat;lon;timestamp;P1;durP1;ratioP1;P2;durP2;ratioP2
32138;SDS011;18644;48.700;9.210;2023-05-29T00:01:01;4.50;;;3.20;;
32138;SDS011;18644;48.700;9.210;2023-05-29T00:03:28;4.82;;;3.35;;
32138;SDS011;18644;48.700;9.210;2023-05-29T00:05:58;4.53;;;2.60;;
32138;SDS011;18644;48.700;9.210;2023-05-29T00:08:26;3.78;;;2.63;;
32138;SDS011;18644;48.700;9.210;2023-05-29T00:10:54;3.85;;;2.78;;
32138;SDS011;18644;48.700;9.210;2023-05-29T00:13:21;3.95;;;2.92;;
32138;SDS011;18644;48.700;9.210;2023-05-29T00:15:48;3.55;;;2.65;;
32138;SDS011;18644;48.700;9.210;2023-05-29T00:18:14;3.65;;;2.50;;
32138;SDS011;18644;48.700;9.210;2023-05-29T00:20:41;6.57;;;2.70;;
32138;SDS011;18644;48.700;9.210;2023-05-29T00:23:08;3.53;;;2.72;;
32138;SDS011;18644;48.700;9.210;2023-05-29T00:25:35;5.40;;;2.90;;
32138;SDS011;18644;48.700;9.210;2023-05-29T00:28:03;3.53;;;2.33;;
32138;SDS011;18644;48.700;9.210;2023-05-29T00:30:31;3.97;;;2.75;;
32138;SDS011;18644;48.700;9.210;2023-05-29T00:32:58;4.55;;;2.65;;
32138;SDS011;18644;48.700;9.210;2023-05-29T00:35:25;4.07;;;2.55;;
32138;SDS011;18644;48.700;9.210;2023-05-29T00:37:52;5.65;;;3.22;;
32138;SDS011;18644;48.700;9.210;2023-05-29T00:40:19;3.75;;;2.95;;
32138;SDS011;18644;48.700;9.210;2023-05-29T00:42:46;3.78;;;2.78;;
32138;SDS011;18644;48.700;9.210;2023-05-29T00:45:14;3.50;;;2.55;;
32138;SDS011;18644;48.700;9.210;2023-05-29T00:47:41;4.00;;;2.60;;
32138;SDS011;18644;48.700;9.210;2023-05-29T00:50:08;3.80;;;2.60;;
32138;SDS011;18644;48.700;9.210;2023-05-29T00:52:38;7.57;;;3.25;;
32138;SDS011;18644;48.700;9.210;2023-05-29T00:55:07;3.28;;;2.28;;
32138;SDS011;18644;48.700;9.210;2023-05-29T00:57:35;5.40;;;2.75;;
32138;SDS011;18644;48.700;9.210;2023-05-29T01:00:03;4.15;;;2.60;;
32138;SDS011;18644;48.700;9.210;2023-05-29T01:02:34;3.63;;;2.45;;
32138;SDS011;18644;48.700;9.210;2023-05-29T01:05:02;5.00;;;2.75;;
32138;SDS011;18644;48.700;9.210;2023-05-29T01:07:30;3.65;;;2.65;;
32138;SDS011;18644;48.700;9.210;2023-05-29T01:09:58;4.63;;;2.60;;
32138;SDS011;18644;48.700;9.210;2023-05-29T01:12:27;3.92;;;2.67;;
32138;SDS011;18644;48.700;9.210;2023-05-29T01:15:14;4.90;;;3.10;;
32138;SDS011;18644;48.700;9.210;2023-05-29T01:17:54;3.00;;;2.10;;
32138;SDS011;18644;48.700;9.210;2023-05-29T01:20:42;2.95;;;1.83;;
32138;SDS011;18644;48.700;9.210;2023-05-29T01:23:28;2.80;;;2.10;;
32138;SDS011;18644;48.700;9.210;2023-05-29T01:26:16;4.28;;;2.47;;
32138;SDS011;18644;48.700;9.210;2023-05-29T01:31:33;3.40;;;2.33;;
32138;SDS011;18644;48.700;9.210;2023-05-29T01:34:02;3.38;;;2.60;;
32138;SDS011;18644;48.700;9.210;2023-05-29T01:36:28;4.15;;;2.13;;
32138;SDS011;18644;48.700;9.210;2023-05-29T01:38:57;3.22;;;2.53;;
32138;SDS011;18644;48.700;9.210;2023-05-29T01:41:25;5.03;;;2.75;;
32138;SDS011;18644;48.700;9.210;2023-05-29T01:43:57;7.53;;;3.13;;
32138;SDS011;18644;48.700;9.210;2023-05-29T01:46:25;4.70;;;2.95;;
32138;SDS011;18644;48.700;9.210;2023-05-29T01:48:52;3.63;;;2.50;;
32138;SDS011;18644;48.700;9.210;2023-05-29T01:51:20;5.55;;;2.30;;
32138;SDS011;18644;48.700;9.210;2023-05-29T01:53:47;4.07;;;2.50;;
32138;SDS011;18644;48.700;9.210;2023-05-29T01:56:14;3.70;;;2.97;;
32138;SDS011;18644;48.700;9.210;2023-05-29T01:58:42;5.90;;;2.67;;
32138;SDS011;18644;48.700;9.210;2023-05-29T02:01:10;3.95;;;2.88;;
32138;SDS011;18644;48.700;9.210;2023-05-29T02:03:37;3.30;;;2.35;;
32138;SDS011;18644;48.700;9.210;2023-05-29T02:06:04;5.35;;;2.78;;
32138;SDS011;18644;48.700;9.210;2023-05-29T02:08:32;3.92;;;2.20;;
32138;SDS011;18644;48.700;9.210;2023-05-29T02:10:59;3.40;;;2.38;;
32138;SDS011;18644;48.700;9.210;2023-05-29T02:13:26;2.78;;;1.83;;
32138;SDS011;18644;48.700;9.210;2023-05-29T02:15:52;3.22;;;2.50;;
32138;SDS011;18644;48.700;9.210;2023-05-29T02:18:21;2.80;;;2.20;;
32138;SDS011;18644;48.700;9.210;2023-05-29T02:20:48;3.63;;;2.75;;
32138;SDS011;18644;48.700;9.210;2023-05-29T02:23:15;5.25;;;2.22;;
32138;SDS011;18644;48.700;9.210;2023-05-29T02:25:44;3.08;;;2.53;;
32138;SDS011;18644;48.700;9.210;2023-05-29T02:28:11;4.72;;;2.90;;
32138;SDS011;18644;48.700;9.210;2023-05-29T02:30:38;4.10;;;2.65;;
32138;SDS011;18644;48.700;9.210;2023-05-29T02:33:05;3.60;;;2.45;;
32138;SDS011;18644;48.700;9.210;2023-05-29T02:35:35;3.25;;;2.13;;
32138;SDS011;18644;48.700;9.210;2023-05-29T02:38:01;3.03;;;2.28;;
32138;SDS011;18644;48.700;9.210;2023-05-29T02:40:28;3.88;;;3.05;;
32138;SDS011;18644;48.700;9.210;2023-05-29T02:42:55;4.18;;;2.60;;
32138;SDS011;18644;48.700;9.210;2023-05-29T02:45:22;4.38;;;2.75;;
32138;SDS011;18644;48.700;9.210;2023-05-29T02:47:49;4.82;;;2.67;;
32138;SDS011;18644;48.700;9.210;2023-05-29T02:50:16;5.38;;;2.90;;
32138;SDS011;18644;48.700;9.210;2023-05-29T02:52:44;5.18;;;3.10;;
32138;SDS011;18644;48.700;9.210;2023-05-29T02:55:11;3.47;;;2.20;;
32138;SDS011;18644;48.700;9.210;2023-05-29T02:57:37;4.22;;;2.67;;
32138;SDS011;18644;48.700;9.210;2023-05-29T03:00:06;4.07;;;2.70;;
32138;SDS011;18644;48.700;9.210;2023-05-29T03:02:34;5.78;;;3.10;;
32138;SDS011;18644;48.700;9.210;2023-05-29T03:05:01;3.85;;;2.25;;
32138;SDS011;18644;48.700;9.210;2023-05-29T03:07:28;4.35;;;2.40;;
32138;SDS011;18644;48.700;9.210;2023-05-29T03:09:57;5.75;;;2.65;;
32138;SDS011;18644;48.700;9.210;2023-05-29T03:12:23;6.22;;;3.00;;
32138;SDS011;18644;48.700;9.210;2023-05-29T03:14:52;4.30;;;2.63;;
32138;SDS011;18644;48.700;9.210;2023-05-29T03:17:21;3.50;;;2.65;;
32138;SDS011;18644;48.700;9.210;2023-05-29T03:19:48;4.35;;;2.85;;
32138;SDS011;18644;48.700;9.210;2023-05-29T03:22:16;3.45;;;2.35;;
32138;SDS011;18644;48.700;9.210;2023-05-29T03:24:42;4.55;;;2.45;;
32138;SDS011;18644;48.700;9.210;2023-05-29T03:27:11;5.03;;;2.70;;
32138;SDS011;18644;48.700;9.210;2023-05-29T03:29:38;4.28;;;3.00;;
32138;SDS011;18644;48.700;9.210;2023-05-29T03:32:04;4.65;;;2.70;;
32138;SDS011;18644;48.700;9.210;2023-05-29T03:34:32;3.85;;;2.78;;
32138;SDS011;18644;48.700;9.210;2023-05-29T03:36:59;5.35;;;3.40;;
32138;SDS011;18644;48.700;9.210;2023-05-29T03:39:27;4.82;;;3.03;;
32138;SDS011;18644;48.700;9.210;2023-05-29T03:41:53;4.57;;;2.85;;
32138;SDS011;18644;48.700;9.210;2023-05-29T03:44:22;4.88;;;2.80;;
32138;SDS011;18644;48.700;9.210;2023-05-29T03:46:49;4.78;;;2.85;;
32138;SDS011;18644;48.700;9.210;2023-05-29T03:49:17;4.78;;;3.38;;
32138;SDS011;18644;48.700;9.210;2023-05-29T03:51:44;4.07;;;2.53;;
32138;SDS011;18644;48.700;9.210;2023-05-29T03:54:10;4.68;;;2.75;;
32138;SDS011;18644;48.700;9.210;2023-05-29T03:56:37;3.70;;;2.80;;
32138;SDS011;18644;48.700;9.210;2023-05-29T03:59:04;4.88;;;2.75;;
32138;SDS011;18644;48.700;9.210;2023-05-29T04:01:32;4.45;;;2.58;;
32138;SDS011;18644;48.700;9.210;2023-05-29T04:03:59;6.00;;;2.80;;
32138;SDS011;18644;48.700;9.210;2023-05-29T04:06:26;4.63;;;2.90;;
32138;SDS011;18644;48.700;9.210;2023-05-29T04:08:54;4.15;;;2.45;;
32138;SDS011;18644;48.700;9.210;2023-05-29T04:11:20;4.03;;;2.53;;
32138;SDS011;18644;48.700;9.210;2023-05-29T04:13:47;5.45;;;2.47;;
32138;SDS011;18644;48.700;9.210;2023-05-29T04:16:14;4.10;;;2.97;;
32138;SDS011;18644;48.700;9.210;2023-05-29T04:18:43;5.32;;;3.00;;
32138;SDS011;18644;48.700;9.210;2023-05-29T04:21:10;6.38;;;3.40;;
32138;SDS011;18644;48.700;9.210;2023-05-29T04:23:37;4.18;;;2.80;;
32138;SDS011;18644;48.700;9.210;2023-05-29T04:26:04;8.88;;;3.20;;
32138;SDS011;18644;48.700;9.210;2023-05-29T04:28:31;11.57;;;3.17;;
32138;SDS011;18644;48.700;9.210;2023-05-29T04:30:58;4.55;;;3.10;;
32138;SDS011;18644;48.700;9.210;2023-05-29T04:33:25;4.88;;;2.90;;
32138;SDS011;18644;48.700;9.210;2023-05-29T04:35:54;3.92;;;2.60;;
32138;SDS011;18644;48.700;9.210;2023-05-29T04:38:21;6.10;;;2.30;;
32138;SDS011;18644;48.700;9.210;2023-05-29T04:40:50;6.07;;;2.97;;
32138;SDS011;18644;48.700;9.210;2023-05-29T04:43:17;3.72;;;2.63;;
32138;SDS011;18644;48.700;9.210;2023-05-29T04:45:44;7.25;;;3.20;;
32138;SDS011;18644;48.700;9.210;2023-05-29T04:48:11;3.80;;;2.55;;
32138;SDS011;18644;48.700;9.210;2023-05-29T04:50:38;6.63;;;2.95;;
32138;SDS011;18644;48.700;9.210;2023-05-29T04:53:07;3.65;;;2.78;;
32138;SDS011;18644;48.700;9.210;2023-05-29T04:55:34;4.95;;;3.00;;
32138;SDS011;18644;48.700;9.210;2023-05-29T04:58:01;3.35;;;2.85;;
32138;SDS011;18644;48.700;9.210;2023-05-29T05:00:28;3.60;;;2.85;;
32138;SDS011;18644;48.700;9.210;2023-05-29T05:02:55;6.40;;;3.15;;
32138;SDS011;18644;48.700;9.210;2023-05-29T05:05:23;4.32;;;2.97;;
32138;SDS011;18644;48.700;9.210;2023-05-29T05:07:49;4.28;;;2.60;;
32138;SDS011;18644;48.700;9.210;2023-05-29T05:10:18;4.70;;;3.30;;
32138;SDS011;18644;48.700;9.210;2023-05-29T05:12:45;5.50;;;3.08;;
32138;SDS011;18644;48.700;9.210;2023-05-29T05:15:12;4.43;;;2.95;;
32138;SDS011;18644;48.700;9.210;2023-05-29T05:17:39;5.28;;;3.13;;
32138;SDS011;18644;48.700;9.210;2023-05-29T05:20:06;6.18;;;3.47;;
32138;SDS011;18644;48.700;9.210;2023-05-29T05:22:33;5.63;;;3.47;;
32138;SDS011;18644;48.700;9.210;2023-05-29T05:25:00;6.28;;;3.47;;
32138;SDS011;18644;48.700;9.210;2023-05-29T05:27:30;6.85;;;3.25;;
32138;SDS011;18644;48.700;9.210;2023-05-29T05:29:57;3.92;;;2.75;;
32138;SDS011;18644;48.700;9.210;2023-05-29T05:32:24;5.00;;;3.10;;
32138;SDS011;18644;48.700;9.210;2023-05-29T05:34:50;4.70;;;3.10;;
32138;SDS011;18644;48.700;9.210;2023-05-29T05:37:17;3.95;;;2.70;;
32138;SDS011;18644;48.700;9.210;2023-05-29T05:39:48;3.95;;;2.85;;
32138;SDS011;18644;48.700;9.210;2023-05-29T05:42:15;3.47;;;2.58;;
32138;SDS011;18644;48.700;9.210;2023-05-29T05:44:43;4.15;;;2.80;;
32138;SDS011;18644;48.700;9.210;2023-05-29T05:47:10;5.13;;;2.63;;
32138;SDS011;18644;48.700;9.210;2023-05-29T05:49:37;4.65;;;2.28;;
32138;SDS011;18644;48.700;9.210;2023-05-29T05:52:04;5.35;;;2.42;;
32138;SDS011;18644;48.700;9.210;2023-05-29T05:54:32;5.07;;;2.67;;
32138;SDS011;18644;48.700;9.210;2023-05-29T05:56:58;4.82;;;2.50;;
32138;SDS011;18644;48.700;9.210;2023-05-29T05:59:28;4.35;;;2.90;;
32138;SDS011;18644;48.700;9.210;2023-05-29T06:01:56;4.18;;;2.50;;
32138;SDS011;18644;48.700;9.210;2023-05-29T06:04:23;4.35;;;2.60;;
32138;SDS011;18644;48.700;9.210;2023-05-29T06:06:50;3.20;;;2.30;;
32138;SDS011;18644;48.700;9.210;2023-05-29T06:09:16;3.60;;;2.47;;
32138;SDS011;18644;48.700;9.210;2023-05-29T06:11:44;4.43;;;2.80;;
32138;SDS011;18644;48.700;9.210;2023-05-29T06:14:11;5.35;;;3.10;;
32138;SDS011;18644;48.700;9.210;2023-05-29T06:16:37;6.18;;;3.00;;
32138;SDS011;18644;48.700;9.210;2023-05-29T06:19:05;4.47;;;2.85;;
32138;SDS011;18644;48.700;9.210;2023-05-29T06:21:33;4.07;;;2.70;;
32138;SDS011;18644;48.700;9.210;2023-05-29T06:24:01;3.40;;;2.53;;
32138;SDS011;18644;48.700;9.210;2023-05-29T06:26:27;4.72;;;2.75;;
32138;SDS011;18644;48.700;9.210;2023-05-29T06:28:54;5.03;;;2.78;;
32138;SDS011;18644;48.700;9.210;2023-05-29T06:31:21;3.22;;;2.40;;
32138;SDS011;18644;48.700;9.210;2023-05-29T06:33:48;3.78;;;2.63;;
32138;SDS011;18644;48.700;9.210;2023-05-29T06:36:17;5.90;;;2.53;;
32138;SDS011;18644;48.700;9.210;2023-05-29T06:38:45;4.40;;;2.90;;
32138;SDS011;18644;48.700;9.210;2023-05-29T06:41:13;4.47;;;2.50;;
32138;SDS011;18644;48.700;9.210;2023-05-29T06:43:40;3.42;;;2.70;;
32138;SDS011;18644;48.700;9.210;2023-05-29T06:46:07;4.85;;;2.75;;
32138;SDS011;18644;48.700;9.210;2023-05-29T06:48:34;4.85;;;2.88;;
32138;SDS011;18644;48.700;9.210;2023-05-29T06:51:01;4.72;;;2.65;;
32138;SDS011;18644;48.700;9.210;2023-05-29T06:53:35;4.72;;;2.72;;
32138;SDS011;18644;48.700;9.210;2023-05-29T06:56:02;4.10;;;2.63;;
32138;SDS011;18644;48.700;9.210;2023-05-29T06:58:29;3.88;;;2.70;;
32138;SDS011;18644;48.700;9.210;2023-05-29T07:00:57;5.22;;;3.20;;
32138;SDS011;18644;48.700;9.210;2023-05-29T07:03:24;5.50;;;2.63;;
32138;SDS011;18644;48.700;9.210;2023-05-29T07:05:52;4.70;;;3.10;;
32138;SDS011;18644;48.700;9.210;2023-05-29T07:08:19;4.10;;;2.70;;
32138;SDS011;18644;48.700;9.210;2023-05-29T07:10:47;2.65;;;2.40;;
32138;SDS011;18644;48.700;9.210;2023-05-29T07:13:15;3.28;;;2.63;;
32138;SDS011;18644;48.700;9.210;2023-05-29T07:15:43;6.15;;;2.92;;
32138;SDS011;18644;48.700;9.210;2023-05-29T07:18:09;4.35;;;2.95;;
32138;SDS011;18644;48.700;9.210;2023-05-29T07:20:36;3.63;;;2.58;;
32138;SDS011;18644;48.700;9.210;2023-05-29T07:23:03;5.93;;;3.00;;
32138;SDS011;18644;48.700;9.210;2023-05-29T07:25:30;4.47;;;3.05;;
32138;SDS011;18644;48.700;9.210;2023-05-29T07:27:59;5.72;;;2.95;;
32138;SDS011;18644;48.700;9.210;2023-05-29T07:30:26;4.50;;;3.00;;
32138;SDS011;18644;48.700;9.210;2023-05-29T07:32:52;4.28;;;2.90;;
32138;SDS011;18644;48.700;9.210;2023-05-29T07:35:19;2.92;;;2.38;;
32138;SDS011;18644;48.700;9.210;2023-05-29T07:37:46;3.22;;;2.60;;
32138;SDS011;18644;48.700;9.210;2023-05-29T07:40:14;5.65;;;2.95;;
32138;SDS011;18644;48.700;9.210;2023-05-29T07:42:41;4.60;;;2.65;;
32138;SDS011;18644;48.700;9.210;2023-05-29T07:45:10;3.15;;;2.30;;
32138;SDS011;18644;48.700;9.210;2023-05-29T07:47:37;3.45;;;2.58;;
32138;SDS011;18644;48.700;9.210;2023-05-29T07:50:04;4.15;;;2.95;;
32138;SDS011;18644;48.700;9.210;2023-05-29T07:52:32;3.30;;;2.58;;
32138;SDS011;18644;48.700;9.210;2023-05-29T07:54:59;3.25;;;2.50;;
32138;SDS011;18644;48.700;9.210;2023-05-29T07:57:26;5.50;;;2.83;;
32138;SDS011;18644;48.700;9.210;2023-05-29T07:59:54;3.58;;;2.50;;
32138;SDS011;18644;48.700;9.210;2023-05-29T08:02:22;4.90;;;2.22;;
32138;SDS011;18644;48.700;9.210;2023-05-29T08:04:49;4.10;;;2.33;;
32138;SDS011;18644;48.700;9.210;2023-05-29T08:07:16;4.53;;;3.00;;
32138;SDS011;18644;48.700;9.210;2023-05-29T08:09:43;4.35;;;2.97;;
32138;SDS011;18644;48.700;9.210;2023-05-29T08:12:10;4.75;;;2.50;;
32138;SDS011;18644;48.700;9.210;2023-05-29T08:14:37;4.18;;;2.85;;
32138;SDS011;18644;48.700;9.210;2023-05-29T08:17:04;3.60;;;2.58;;
32138;SDS011;18644;48.700;9.210;2023-05-29T08:19:32;3.88;;;2.83;;
32138;SDS011;18644;48.700;9.210;2023-05-29T08:22:00;4.50;;;3.00;;
32138;SDS011;18644;48.700;9.210;2023-05-29T08:24:27;4.05;;;2.63;;
32138;SDS011;18644;48.700;9.210;2023-05-29T08:26:53;4.78;;;2.92;;
32138;SDS011;18644;48.700;9.210;2023-05-29T08:29:20;3.60;;;2.55;;
32138;SDS011;18644;48.700;9.210;2023-05-29T08:31:48;3.88;;;2.33;;
32138;SDS011;18644;48.700;9.210;2023-05-29T08:34:14;3.47;;;2.70;;
32138;SDS011;18644;48.700;9.210;2023-05-29T08:36:43;3.08;;;2.42;;
32138;SDS011;18644;48.700;9.210;2023-05-29T08:39:10;4.90;;;2.45;;
32138;SDS011;18644;48.700;9.210;2023-05-29T08:41:43;4.63;;;2.92;;
32138;SDS011;18644;48.700;9.210;2023-05-29T08:44:18;5.70;;;2.88;;
32138;SDS011;18644;48.700;9.210;2023-05-29T08:46:49;6.40;;;2.83;;
32138;SDS011;18644;48.700;9.210;2023-05-29T08:49:20;4.95;;;2.95;;
32138;SDS011;18644;48.700;9.210;2023-05-29T08:52:02;3.08;;;2.40;;
32138;SDS011;18644;48.700;9.210;2023-05-29T08:54:36;3.88;;;2.40;;
32138;SDS011;18644;48.700;9.210;2023-05-29T08:57:03;3.90;;;2.53;;
32138;SDS011;18644;48.700;9.210;2023-05-29T08:59:31;3.28;;;2.40;;
32138;SDS011;18644;48.700;9.210;2023-05-29T09:01:59;5.70;;;2.78;;
32138;SDS011;18644;48.700;9.210;2023-05-29T09:04:27;5.68;;;2.92;;
32138;SDS011;18644;48.700;9.210;2023-05-29T09:06:56;4.75;;;2.28;;
32138;SDS011;18644;48.700;9.210;2023-05-29T09:09:25;3.33;;;2.63;;
32138;SDS011;18644;48.700;9.210;2023-05-29T09:11:52;3.92;;;2.53;;
32138;SDS011;18644;48.700;9.210;2023-05-29T09:14:31;4.35;;;3.28;;
32138;SDS011;18644;48.700;9.210;2023-05-29T09:17:00;5.00;;;2.88;;
32138;SDS011;18644;48.700;9.210;2023-05-29T09:19:28;4.03;;;2.53;;
32138;SDS011;18644;48.700;9.210;2023-05-29T09:22:01;4.15;;;2.80;;
32138;SDS011;18644;48.700;9.210;2023-05-29T09:24:30;4.22;;;2.88;;
32138;SDS011;18644;48.700;9.210;2023-05-29T09:27:01;2.88;;;2.53;;
32138;SDS011;18644;48.700;9.210;2023-05-29T09:29:33;4.00;;;2.58;;
32138;SDS011;18644;48.700;9.210;2023-05-29T09:32:05;3.70;;;2.65;;
32138;SDS011;18644;48.700;9.210;2023-05-29T09:34:34;5.80;;;2.78;;
32138;SDS011;18644;48.700;9.210;2023-05-29T09:37:03;5.32;;;2.75;;
32138;SDS011;18644;48.700;9.210;2023-05-29T09:39:34;4.18;;;2.83;;
32138;SDS011;18644;48.700;9.210;2023-05-29T09:42:12;3.33;;;2.40;;
32138;SDS011;18644;48.700;9.210;2023-05-29T09:44:39;2.90;;;2.33;;
32138;SDS011;18644;48.700;9.210;2023-05-29T09:47:07;2.70;;;2.15;;
32138;SDS011;18644;48.700;9.210;2023-05-29T09:49:35;5.05;;;2.92;;
32138;SDS011;18644;48.700;9.210;2023-05-29T09:52:09;3.15;;;2.55;;
32138;SDS011;18644;48.700;9.210;2023-05-29T09:54:41;3.40;;;2.38;;
32138;SDS011;18644;48.700;9.210;2023-05-29T09:57:10;3.60;;;2.67;;
32138;SDS011;18644;48.700;9.210;2023-05-29T09:59:39;4.65;;;3.28;;
32138;SDS011;18644;48.700;9.210;2023-05-29T10:02:09;4.38;;;2.65;;
32138;SDS011;18644;48.700;9.210;2023-05-29T10:04:38;4.35;;;2.75;;
32138;SDS011;18644;48.700;9.210;2023-05-29T10:07:08;3.75;;;2.47;;
32138;SDS011;18644;48.700;9.210;2023-05-29T10:09:43;2.65;;;2.15;;
32138;SDS011;18644;48.700;9.210;2023-05-29T10:12:15;4.57;;;2.75;;
32138;SDS011;18644;48.700;9.210;2023-05-29T10:14:46;3.95;;;2.55;;
32138;SDS011;18644;48.700;9.210;2023-05-29T10:17:16;3.33;;;2.42;;
32138;SDS011;18644;48.700;9.210;2023-05-29T10:19:49;4.18;;;2.17;;
32138;SDS011;18644;48.700;9.210;2023-05-29T10:22:19;3.80;;;2.38;;
32138;SDS011;18644;48.700;9.210;2023-05-29T10:24:51;3.97;;;2.20;;
32138;SDS011;18644;48.700;9.210;2023-05-29T10:27:18;2.55;;;2.25;;
32138;SDS011;18644;48.700;9.210;2023-05-29T10:29:48;4.22;;;2.53;;
32138;SDS011;18644;48.700;9.210;2023-05-29T10:32:21;3.50;;;2.35;;
32138;SDS011;18644;48.700;9.210;2023-05-29T10:34:56;3.83;;;2.33;;
32138;SDS011;18644;48.700;9.210;2023-05-29T10:37:37;3.53;;;2.53;;
32138;SDS011;18644;48.700;9.210;2023-05-29T10:40:11;3.42;;;2.38;;
32138;SDS011;18644;48.700;9.210;2023-05-29T10:42:44;3.92;;;2.40;;
32138;SDS011;18644;48.700;9.210;2023-05-29T10:53:57;2.85;;;2.38;;
32138;SDS011;18644;48.700;9.210;2023-05-29T10:56:27;3.33;;;2.25;;
32138;SDS011;18644;48.700;9.210;2023-05-29T10:58:57;4.85;;;2.63;;
32138;SDS011;18644;48.700;9.210;2023-05-29T11:01:27;2.63;;;2.20;;
32138;SDS011;18644;48.700;9.210;2023-05-29T11:06:56;2.70;;;2.17;;
32138;SDS011;18644;48.700;9.210;2023-05-29T11:09:32;2.88;;;2.00;;
32138;SDS011;18644;48.700;9.210;2023-05-29T11:12:13;2.75;;;2.20;;
32138;SDS011;18644;48.700;9.210;2023-05-29T11:14:54;2.08;;;1.73;;
32138;SDS011;18644;48.700;9.210;2023-05-29T11:17:29;2.78;;;2.38;;
32138;SDS011;18644;48.700;9.210;2023-05-29T11:20:00;5.03;;;2.13;;
32138;SDS011;18644;48.700;9.210;2023-05-29T11:22:32;5.15;;;2.33;;
32138;SDS011;18644;48.700;9.210;2023-05-29T11:25:18;3.55;;;2.20;;
32138;SDS011;18644;48.700;9.210;2023-05-29T11:27:46;2.90;;;2.45;;
32138;SDS011;18644;48.700;9.210;2023-05-29T11:30:14;3.08;;;2.05;;
32138;SDS011;18644;48.700;9.210;2023-05-29T11:32:41;2.85;;;2.22;;
32138;SDS011;18644;48.700;9.210;2023-05-29T11:35:12;2.50;;;1.95;;
32138;SDS011;18644;48.700;9.210;2023-05-29T11:37:40;3.63;;;1.83;;
32138;SDS011;18644;48.700;9.210;2023-05-29T11:40:11;2.35;;;1.88;;
32138;SDS011;18644;48.700;9.210;2023-05-29T11:42:42;3.80;;;2.00;;
32138;SDS011;18644;48.700;9.210;2023-05-29T11:45:13;3.03;;;2.25;;
32138;SDS011;18644;48.700;9.210;2023-05-29T11:47:50;2.00;;;1.73;;
32138;SDS011;18644;48.700;9.210;2023-05-29T11:50:19;2.65;;;2.08;;
32138;SDS011;18644;48.700;9.210;2023-05-29T11:52:46;2.63;;;1.90;;
32138;SDS011;18644;48.700;9.210;2023-05-29T11:55:14;2.38;;;1.92;;
32138;SDS011;18644;48.700;9.210;2023-05-29T11:57:42;4.13;;;2.00;;
32138;SDS011;18644;48.700;9.210;2023-05-29T12:00:12;2.60;;;2.10;;
32138;SDS011;18644;48.700;9.210;2023-05-29T12:02:40;2.78;;;1.90;;
32138;SDS011;18644;48.700;9.210;2023-05-29T12:05:08;4.72;;;1.67;;
32138;SDS011;18644;48.700;9.210;2023-05-29T12:07:46;2.97;;;1.92;;
32138;SDS011;18644;48.700;9.210;2023-05-29T12:10:15;2.20;;;1.92;;
32138;SDS011;18644;48.700;9.210;2023-05-29T12:12:48;2.30;;;1.80;;
32138;SDS011;18644;48.700;9.210;2023-05-29T12:15:16;2.55;;;1.90;;
32138;SDS011;18644;48.700;9.210;2023-05-29T12:17:44;2.20;;;1.90;;
32138;SDS011;18644;48.700;9.210;2023-05-29T12:20:11;2.78;;;2.00;;
32138;SDS011;18644;48.700;9.210;2023-05-29T12:22:40;3.55;;;1.77;;
32138;SDS011;18644;48.700;9.210;2023-05-29T12:25:09;3.97;;;2.30;;
32138;SDS011;18644;48.700;9.210;2023-05-29T12:27:38;3.35;;;1.73;;
32138;SDS011;18644;48.700;9.210;2023-05-29T12:30:11;3.78;;;2.10;;
32138;SDS011;18644;48.700;9.210;2023-05-29T12:32:41;4.13;;;2.03;;
32138;SDS011;18644;48.700;9.210;2023-05-29T12:35:10;3.08;;;1.83;;
32138;SDS011;18644;48.700;9.210;2023-05-29T12:37:42;2.40;;;1.95;;
32138;SDS011;18644;48.700;9.210;2023-05-29T12:40:14;4.25;;;2.05;;
32138;SDS011;18644;48.700;9.210;2023-05-29T12:42:46;3.05;;;1.90;;
32138;SDS011;18644;48.700;9.210;2023-05-29T12:45:15;4.68;;;2.13;;
32138;SDS011;18644;48.700;9.210;2023-05-29T12:47:44;2.80;;;1.92;;
32138;SDS011;18644;48.700;9.210;2023-05-29T12:50:19;2.83;;;1.90;;
32138;SDS011;18644;48.700;9.210;2023-05-29T12:52:54;2.92;;;2.30;;
32138;SDS011;18644;48.700;9.210;2023-05-29T12:55:23;2.78;;;2.10;;
32138;SDS011;18644;48.700;9.210;2023-05-29T12:57:50;2.40;;;1.85;;
32138;SDS011;18644;48.700;9.210;2023-05-29T13:00:19;1.73;;;1.52;;
32138;SDS011;18644;48.700;9.210;2023-05-29T13:02:48;1.98;;;1.77;;
32138;SDS011;18644;48.700;9.210;2023-05-29T13:05:15;2.78;;;1.95;;
32138;SDS011;18644;48.700;9.210;2023-05-29T13:07:44;2.22;;;1.88;;
32138;SDS011;18644;48.700;9.210;2023-05-29T13:10:12;2.22;;;1.73;;
32138;SDS011;18644;48.700;9.210;2023-05-29T13:12:40;2.22;;;1.65;;
32138;SDS011;18644;48.700;9.210;2023-05-29T13:15:07;2.85;;;1.80;;
32138;SDS011;18644;48.700;9.210;2023-05-29T13:17:38;2.80;;;2.45;;
32138;SDS011;18644;48.700;9.210;2023-05-29T13:20:07;3.08;;;2.00;;
32138;SDS011;18644;48.700;9.210;2023-05-29T13:22:36;2.20;;;1.85;;
32138;SDS011;18644;48.700;9.210;2023-05-29T13:25:03;2.30;;;1.65;;
32138;SDS011;18644;48.700;9.210;2023-05-29T13:27:32;1.90;;;1.73;;
32138;SDS011;18644;48.700;9.210;2023-05-29T13:30:00;2.25;;;1.67;;
32138;SDS011;18644;48.700;9.210;2023-05-29T13:32:28;2.55;;;1.73;;
32138;SDS011;18644;48.700;9.210;2023-05-29T13:34:56;3.42;;;2.22;;
32138;SDS011;18644;48.700;9.210;2023-05-29T13:37:24;2.67;;;1.90;;
32138;SDS011;18644;48.700;9.210;2023-05-29T13:39:52;2.60;;;2.13;;
32138;SDS011;18644;48.700;9.210;2023-05-29T13:42:20;3.53;;;2.17;;
32138;SDS011;18644;48.700;9.210;2023-05-29T13:44:48;3.15;;;2.17;;
32138;SDS011;18644;48.700;9.210;2023-05-29T13:47:16;2.25;;;2.00;;
32138;SDS011;18644;48.700;9.210;2023-05-29T13:49:43;2.90;;;1.98;;
32138;SDS011;18644;48.700;9.210;2023-05-29T13:52:13;3.10;;;2.33;;
32138;SDS011;18644;48.700;9.210;2023-05-29T13:54:41;2.90;;;2.20;;
32138;SDS011;18644;48.700;9.210;2023-05-29T13:57:08;2.85;;;2.03;;
32138;SDS011;18644;48.700;9.210;2023-05-29T13:59:35;3.08;;;2.10;;
32138;SDS011;18644;48.700;9.210;2023-05-29T14:02:03;2.88;;;1.80;;
32138;SDS011;18644;48.700;9.210;2023-05-29T14:04:31;3.25;;;2.00;;
32138;SDS011;18644;48.700;9.210;2023-05-29T14:06:57;2.90;;;2.00;;
32138;SDS011;18644;48.700;9.210;2023-05-29T14:09:26;4.00;;;2.00;;
32138;SDS011;18644;48.700;9.210;2023-05-29T14:11:53;2.63;;;2.03;;
32138;SDS011;18644;48.700;9.210;2023-05-29T14:14:21;2.65;;;2.10;;
32138;SDS011;18644;48.700;9.210;2023-05-29T14:16:49;3.00;;;1.98;;
32138;SDS011;18644;48.700;9.210;2023-05-29T14:19:16;2.47;;;2.10;;
32138;SDS011;18644;48.700;9.210;2023-05-29T14:21:44;3.47;;;2.15;;
32138;SDS011;18644;48.700;9.210;2023-05-29T14:24:11;2.10;;;1.80;;
32138;SDS011;18644;48.700;9.210;2023-05-29T14:26:39;2.88;;;2.13;;
32138;SDS011;18644;48.700;9.210;2023-05-29T14:29:08;2.10;;;1.90;;
32138;SDS011;18644;48.700;9.210;2023-05-29T14:31:35;2.45;;;2.10;;
32138;SDS011;18644;48.700;9.210;2023-05-29T14:34:01;2.47;;;2.20;;
32138;SDS011;18644;48.700;9.210;2023-05-29T14:36:28;2.40;;;2.13;;
32138;SDS011;18644;48.700;9.210;2023-05-29T14:38:55;6.50;;;2.40;;
32138;SDS011;18644;48.700;9.210;2023-05-29T14:41:22;2.80;;;1.92;;
32138;SDS011;18644;48.700;9.210;2023-05-29T14:43:51;2.72;;;2.40;;
32138;SDS011;18644;48.700;9.210;2023-05-29T14:46:22;3.53;;;2.40;;
32138;SDS011;18644;48.700;9.210;2023-05-29T14:48:50;2.22;;;2.03;;
32138;SDS011;18644;48.700;9.210;2023-05-29T14:51:19;2.78;;;2.33;;
32138;SDS011;18644;48.700;9.210;2023-05-29T14:53:46;2.55;;;2.00;;
32138;SDS011;18644;48.700;9.210;2023-05-29T14:56:13;2.58;;;2.30;;
32138;SDS011;18644;48.700;9.210;2023-05-29T14:58:40;2.20;;;1.98;;
32138;SDS011;18644;48.700;9.210;2023-05-29T15:01:08;2.05;;;1.85;;
32138;SDS011;18644;48.700;9.210;2023-05-29T15:03:35;4.35;;;2.30;;
32138;SDS011;18644;48.700;9.210;2023-05-29T15:06:02;2.15;;;1.95;;
32138;SDS011;18644;48.700;9.210;2023-05-29T15:08:31;2.13;;;1.92;;
32138;SDS011;18644;48.700;9.210;2023-05-29T15:10:59;1.90;;;1.65;;